KLIT/LIT METAR and TAF weather

Enter ICAO airport designator
Station Type Date Time Source
KLIT METAR 2020/07/04 07:53 UTC NOAA

KLIT 040753Z 00000KT 10SM FEW250 23/21 A2992 RMK AO2 SLP130 T02280211


Station Type Date Time Source
KLIT Decoded METAR 2020/07/04 07:53 UTC NOAA

LITTLE ROCK ADAMS FIELD, AR, United States (KLIT) 34-44N 92-14W 79M
Jul 04, 2020 - 03:53 AM EDT / 2020.07.04 0753 UTC
Wind: Calm:0
Visibility: 10 mile(s):0
Sky conditions: mostly clear
Temperature: 73.0 F (22.8 C)
Dew Point: 70.0 F (21.1 C)
Relative Humidity: 90%
Pressure (altimeter): 29.92 in. Hg (1013 hPa)
ob: KLIT 040753Z 00000KT 10SM FEW250 23/21 A2992 RMK AO2 SLP130 T02280211
cycle: 8

Station Type Date Time Source
KLIT TAF 2020/07/04 06:22 UTC NOAA

TAF KLIT 040520Z 0406/0506 VRB03KT P6SM BKN150
FM041100 07003KT P6SM BKN150
FM042100 08006KT P6SM BKN100 PROB30 0421/0424 5SM -TSRA BKN050CB

Example: see airport list